Time;durP1;ratioP1;P1;durP2;ratioP2;P2;SDS_P1;SDS_P2;PMS_P1;PMS_P2;Temp;Humidity;BMP_temperature;BMP_pressure;BME280_temperature;BME280_humidity;BME280_pressure;Samples;Min_cycle;Max_cycle;Signal;HPM_P1;HPM_P2
2022/05/25 00:01:09;;;;;;;6.50;4.53;;;12.60;99.90;;;12.34;70.94;100625.56;5001647;28;21100;-70
2022/05/25 00:03:38;;;;;;;3.43;3.13;;;12.50;99.90;;;12.42;70.89;100622.56;5013683;28;20462;-70
2022/05/25 00:06:11;;;;;;;2.90;2.67;;;12.50;99.90;;;12.41;70.79;100630.91;5015350;28;20440;-71
2022/05/25 00:08:42;;;;;;;3.47;3.17;;;12.50;99.90;;;12.35;70.53;100629.91;5007323;28;21139;-70
2022/05/25 00:11:12;;;;;;;4.10;2.90;;;12.50;99.90;;;12.24;70.84;100636.06;5006863;28;20877;-71
2022/05/25 00:13:41;;;;;;;3.60;3.30;;;12.40;99.90;;;12.14;71.15;100635.72;5020121;28;20622;-70
2022/05/25 00:16:10;;;;;;;5.00;2.83;;;12.30;99.90;;;12.09;71.64;100638.25;5010133;28;20468;-70
2022/05/25 00:19:58;;;;;;;9.53;4.80;;;12.30;99.90;;;12.12;71.67;100644.06;5012382;28;20951;-72
2022/05/25 00:21:30;;;;;;;6.90;3.97;;;12.30;99.90;;;12.24;71.17;100649.63;5010915;28;20536;-70
2022/05/25 00:24:00;;;;;;;4.83;3.07;;;12.30;99.90;;;12.18;71.04;100651.34;5018555;28;20494;-72
2022/05/25 00:26:28;;;;;;;4.17;3.60;;;12.30;99.90;;;12.11;71.33;100658.66;5003248;28;20498;-69
2022/05/25 00:28:57;;;;;;;3.23;2.80;;;12.30;99.90;;;12.11;70.92;100653.25;5014372;28;20423;-72
2022/05/25 00:31:26;;;;;;;3.87;2.97;;;12.30;99.90;;;12.02;71.16;100653.72;5013883;28;20508;-73
2022/05/25 00:33:55;;;;;;;3.20;2.87;;;12.20;99.90;;;11.99;71.47;100659.59;5016648;28;20418;-73
2022/05/25 00:36:24;;;;;;;4.37;3.30;;;12.20;99.90;;;11.92;72.13;100658.78;5015958;28;20507;-72
2022/05/25 00:38:54;;;;;;;4.47;3.50;;;12.10;99.90;;;11.94;72.39;100662.94;5015150;28;20468;-71
2022/05/25 00:41:25;;;;;;;4.03;3.30;;;12.10;99.90;;;12.07;72.37;100667.47;5025068;28;20535;-71
2022/05/25 00:43:54;;;;;;;4.10;3.33;;;12.10;99.90;;;12.01;72.51;100663.72;5013890;28;20522;-73
2022/05/25 00:46:24;;;;;;;6.00;3.80;;;12.10;99.90;;;12.00;72.38;100658.56;5014187;28;20533;-71
2022/05/25 00:48:57;;;;;;;5.13;4.00;;;12.10;99.90;;;11.93;72.34;100660.44;5024863;28;20547;-73
2022/05/25 00:51:38;;;;;;;4.53;4.13;;;12.10;99.90;;;11.89;72.50;100651.09;5019773;28;20465;-73
2022/05/25 00:54:13;;;;;;;3.57;3.23;;;12.00;99.90;;;11.85;72.58;100652.56;5023636;28;21020;-71
2022/05/25 00:56:46;;;;;;;2.70;2.37;;;12.00;99.90;;;11.80;72.49;100641.53;5013080;28;20929;-72
2022/05/25 00:59:21;;;;;;;5.57;3.33;;;12.00;99.90;;;11.79;72.73;100653.44;5010450;28;20546;-71
2022/05/25 01:01:52;;;;;;;3.97;2.80;;;11.90;99.90;;;11.76;72.64;100644.66;5021960;28;20467;-71
2022/05/25 01:04:20;;;;;;;4.50;3.77;;;11.90;99.90;;;11.75;72.56;100643.03;5024240;28;20443;-71
2022/05/25 01:07:13;;;;;;;3.70;3.10;;;11.90;99.90;;;11.72;72.42;100639.88;5014359;28;20420;-71
2022/05/25 01:10:03;;;;;;;5.60;3.90;;;11.90;99.90;;;11.64;72.53;100646.38;5021818;28;20497;-70
2022/05/25 01:12:55;;;;;;;7.57;3.80;;;11.80;99.90;;;11.58;72.58;100649.94;5016764;28;20504;-70
2022/05/25 01:15:36;;;;;;;4.23;3.60;;;11.80;99.90;;;11.52;72.83;100653.50;5017404;28;20464;-72
2022/05/25 01:18:25;;;;;;;6.40;4.00;;;11.70;99.90;;;11.48;73.26;100652.25;5014038;28;20448;-71
2022/05/25 01:20:58;;;;;;;3.63;2.83;;;11.70;99.90;;;11.46;73.31;100651.66;5017648;28;20468;-72
2022/05/25 01:24:21;;;;;;;4.13;3.57;;;11.70;99.90;;;11.59;73.80;100651.59;5017513;28;20473;-73
2022/05/25 01:27:30;;;;;;;4.50;3.70;;;11.70;99.90;;;11.49;73.79;100650.38;5026566;28;20863;-72
2022/05/25 01:30:20;;;;;;;4.50;4.13;;;11.70;99.90;;;11.43;74.19;100657.50;5008521;28;20461;-71
2022/05/25 01:33:15;;;;;;;5.40;4.13;;;11.60;99.90;;;11.47;74.48;100663.34;5011417;28;20511;-71
2022/05/25 01:36:00;;;;;;;4.30;3.20;;;11.60;99.90;;;11.49;74.03;100664.78;4994125;28;20504;-72
2022/05/25 01:38:43;;;;;;;5.27;4.50;;;11.60;99.90;;;11.41;74.02;100651.47;5011495;28;20495;-71
2022/05/25 01:41:20;;;;;;;4.80;3.30;;;11.60;99.90;;;11.37;74.70;100646.69;5013789;28;20616;-71
2022/05/25 01:43:57;;;;;;;5.40;4.87;;;11.60;99.90;;;11.40;74.67;100648.97;5017355;28;20506;-71
2022/05/25 01:46:32;;;;;;;3.50;3.20;;;11.60;99.90;;;11.38;74.77;100649.16;5013974;28;20432;-71
2022/05/25 01:49:09;;;;;;;6.00;3.87;;;11.50;99.90;;;11.42;75.04;100644.19;5023306;28;20538;-69
2022/05/25 01:51:46;;;;;;;5.67;4.40;;;11.60;99.90;;;11.44;75.02;100650.19;5012403;28;20468;-71
2022/05/25 01:54:25;;;;;;;6.87;4.77;;;11.60;99.90;;;11.33;75.10;100659.81;5033829;28;20770;-71
2022/05/25 01:56:59;;;;;;;4.73;4.07;;;11.50;99.90;;;11.26;75.31;100659.00;5017796;28;20464;-72
2022/05/25 01:59:28;;;;;;;5.30;3.77;;;11.50;99.90;;;11.26;75.70;100664.44;5012465;28;20485;-71
2022/05/25 02:04:51;;;;;;;4.57;3.53;;;11.50;99.90;;;11.51;75.14;100672.69;5017378;28;21085;-72
2022/05/25 02:07:54;;;;;;;5.03;3.80;;;11.60;99.90;;;11.59;74.83;100680.59;5018420;28;20457;-73
2022/05/25 02:10:54;;;;;;;5.40;4.40;;;11.70;99.90;;;11.58;74.76;100678.91;5006500;28;20432;-71
2022/05/25 02:13:44;;;;;;;8.67;4.30;;;11.70;99.90;;;11.50;75.05;100673.75;5009941;28;20474;-70
2022/05/25 02:16:30;;;;;;;4.40;4.00;;;11.60;99.90;;;11.55;75.16;100682.91;5009657;28;20469;-70
2022/05/25 02:19:12;;;;;;;5.67;4.37;;;11.70;99.90;;;11.50;75.16;100680.00;5008380;28;20456;-70
2022/05/25 02:21:52;;;;;;;8.03;4.00;;;11.70;99.90;;;11.44;75.38;100690.84;5005084;28;20472;-71
2022/05/25 02:24:29;;;;;;;4.50;3.93;;;11.60;99.90;;;11.38;75.52;100684.38;5000599;28;20527;-71
2022/05/25 02:27:07;;;;;;;6.43;4.20;;;11.60;99.90;;;11.38;75.79;100684.38;5013523;28;20440;-71
2022/05/25 02:29:40;;;;;;;4.40;3.83;;;11.50;99.90;;;11.41;75.72;100685.84;5017324;28;20474;-71
2022/05/25 02:32:16;;;;;;;7.13;4.87;;;11.50;99.90;;;11.53;75.33;100674.13;5009110;28;20491;-72
2022/05/25 02:34:52;;;;;;;6.23;4.70;;;11.60;99.90;;;11.58;75.19;100684.34;5006842;28;20901;-70
2022/05/25 02:37:26;;;;;;;5.23;4.17;;;11.70;99.90;;;11.57;75.25;100693.53;5011294;28;20807;-70
2022/05/25 02:39:56;;;;;;;5.23;4.57;;;11.70;99.90;;;11.61;75.37;100690.19;5021409;28;20439;-72
2022/05/25 02:42:25;;;;;;;4.33;3.93;;;11.80;99.90;;;11.75;75.13;100702.66;5014867;28;20526;-71
2022/05/25 02:44:55;;;;;;;5.10;4.20;;;11.80;99.90;;;11.80;74.97;100698.47;5018345;28;20478;-72
2022/05/25 02:47:24;;;;;;;4.77;4.33;;;11.90;99.90;;;11.97;74.49;100707.78;5012323;28;21319;-70
2022/05/25 02:49:54;;;;;;;5.60;4.30;;;12.00;99.90;;;12.20;73.52;100699.94;5007317;28;20475;-70
2022/05/25 02:52:23;;;;;;;4.70;4.20;;;12.10;99.90;;;12.24;73.52;100701.19;5015973;28;20552;-70
2022/05/25 02:54:52;;;;;;;7.03;4.47;;;12.20;99.90;;;12.33;73.40;100704.47;5016956;28;20444;-70
2022/05/25 02:57:21;;;;;;;7.13;5.00;;;12.30;99.90;;;12.46;73.30;100709.78;5022301;28;20516;-71
2022/05/25 02:59:50;;;;;;;4.80;4.27;;;12.40;99.90;;;12.66;72.57;100715.09;5021807;28;20436;-70
2022/05/25 03:02:20;;;;;;;5.90;4.70;;;12.50;99.90;;;12.91;71.05;100707.78;5027423;28;20464;-71
2022/05/25 03:04:49;;;;;;;4.67;3.70;;;12.70;99.90;;;12.82;71.34;100706.41;5014102;28;20514;-71
2022/05/25 03:07:19;;;;;;;5.07;3.70;;;12.70;99.90;;;12.89;71.59;100709.88;5018971;28;20437;-71
2022/05/25 03:09:48;;;;;;;5.00;4.30;;;12.80;99.90;;;13.03;71.44;100711.44;5010952;28;20471;-71
2022/05/25 03:12:17;;;;;;;8.07;4.60;;;12.90;99.90;;;13.08;71.24;100714.31;5021713;28;20454;-71
2022/05/25 03:14:46;;;;;;;7.70;4.10;;;13.00;99.90;;;13.16;70.80;100722.25;5015446;28;20442;-72
2022/05/25 03:17:15;;;;;;;4.97;4.47;;;13.10;99.90;;;13.45;68.63;100726.97;5022938;28;20470;-71
2022/05/25 03:19:53;;;;;;;4.10;3.77;;;13.20;99.90;;;13.46;68.61;100733.22;5019227;28;20444;-73
2022/05/25 03:22:24;;;;;;;4.80;4.30;;;13.30;99.90;;;13.43;68.92;100729.06;5006875;28;20483;-73
2022/05/25 03:24:53;;;;;;;7.57;4.43;;;13.30;99.90;;;13.47;68.59;100734.88;5033897;28;20548;-72
2022/05/25 03:27:21;;;;;;;4.60;3.40;;;13.40;99.90;;;13.54;68.37;100740.25;5015631;28;20451;-71
2022/05/25 03:29:50;;;;;;;3.83;3.53;;;13.40;99.90;;;13.51;67.95;100740.72;5014720;28;20461;-70
2022/05/25 03:32:20;;;;;;;4.33;3.90;;;13.40;99.90;;;13.40;68.17;100742.28;5007331;28;20846;-71
2022/05/25 03:34:49;;;;;;;4.87;3.47;;;13.30;99.90;;;13.36;68.49;100750.03;5013283;28;20977;-71
2022/05/25 03:37:18;;;;;;;4.97;4.47;;;13.30;99.90;;;13.39;68.22;100749.59;5011044;28;20813;-70
2022/05/25 03:39:48;;;;;;;3.80;3.40;;;13.30;99.90;;;13.42;67.96;100754.56;5015750;28;21184;-70
2022/05/25 03:42:19;;;;;;;4.17;3.77;;;13.40;99.90;;;13.36;68.08;100760.09;5011406;28;21020;-72
2022/05/25 03:44:48;;;;;;;4.57;4.17;;;13.30;99.90;;;13.35;68.01;100756.56;5009961;28;20458;-73
2022/05/25 03:47:17;;;;;;;4.53;4.10;;;13.30;99.90;;;13.44;68.43;100752.47;5020966;28;20432;-73
2022/05/25 03:49:46;;;;;;;5.30;4.80;;;13.30;99.90;;;13.45;67.46;100751.44;5013920;28;20449;-71
2022/05/25 03:52:21;;;;;;;5.33;3.40;;;13.30;99.90;;;13.45;67.41;100746.00;5020143;28;20476;-73
2022/05/25 03:54:52;;;;;;;4.10;3.70;;;13.30;99.90;;;13.56;66.94;100749.84;5029473;28;20828;-70
2022/05/25 03:57:21;;;;;;;4.23;3.83;;;13.40;99.90;;;13.57;67.29;100750.66;5015407;28;20497;-71
2022/05/25 03:59:50;;;;;;;4.57;3.87;;;13.40;99.90;;;13.57;67.64;100756.09;5016716;28;21081;-70
2022/05/25 04:02:19;;;;;;;6.20;4.23;;;13.50;99.90;;;13.59;67.20;100751.28;5021328;28;20487;-71
2022/05/25 04:05:07;;;;;;;5.10;3.57;;;13.50;99.90;;;13.58;67.26;100749.63;5012600;28;20447;-73
2022/05/25 04:07:40;;;;;;;5.07;4.20;;;13.50;99.90;;;13.65;67.43;100764.00;5010917;28;20529;-72
2022/05/25 04:10:14;;;;;;;4.13;3.73;;;13.50;99.90;;;13.75;67.00;100758.84;5017448;28;20485;-72
2022/05/25 04:12:44;;;;;;;5.80;4.10;;;13.60;99.90;;;13.93;66.13;100773.28;5006384;28;20961;-69
2022/05/25 04:15:18;;;;;;;4.57;4.17;;;13.80;99.90;;;14.10;65.75;100773.50;5023830;28;20489;-72
2022/05/25 04:17:46;;;;;;;4.70;4.30;;;13.90;99.90;;;14.28;64.73;100764.50;5014939;28;20468;-72
2022/05/25 04:20:17;;;;;;;5.80;4.13;;;14.00;98.70;;;14.33;64.46;100770.06;5016323;28;20441;-70
2022/05/25 04:22:47;;;;;;;8.97;4.87;;;14.10;97.20;;;14.35;64.50;100776.09;5023569;28;20487;-71
2022/05/25 04:25:22;;;;;;;4.10;3.70;;;14.10;97.10;;;14.37;64.73;100778.66;5014158;28;20437;-71
2022/05/25 04:27:54;;;;;;;5.90;3.90;;;14.10;96.90;;;14.33;64.47;100784.50;5023299;28;21010;-71
2022/05/25 04:30:26;;;;;;;5.40;4.07;;;14.10;96.00;;;14.48;63.34;100775.94;5007942;28;20479;-71
2022/05/25 04:32:56;;;;;;;5.17;4.70;;;14.30;93.50;;;14.46;63.66;100782.72;5013204;28;20959;-70
2022/05/25 04:35:27;;;;;;;5.23;3.97;;;14.20;93.40;;;14.50;63.06;100787.47;5009709;28;20459;-72
2022/05/25 04:37:56;;;;;;;5.60;4.93;;;14.30;92.60;;;14.63;63.41;100783.72;5018078;28;20480;-70
2022/05/25 04:40:31;;;;;;;6.10;4.53;;;14.40;93.00;;;14.56;62.94;100788.44;5019645;28;20443;-70
2022/05/25 04:43:13;;;;;;;4.20;3.80;;;14.30;91.30;;;14.59;62.44;100788.78;5009330;28;20449;-70
2022/05/25 04:45:45;;;;;;;5.97;4.23;;;14.40;86.70;;;14.55;62.43;100797.66;4999105;28;20480;-70
2022/05/25 04:48:16;;;;;;;6.67;3.60;;;14.30;84.60;;;14.61;62.82;100791.28;5020451;28;20471;-70
2022/05/25 04:50:46;;;;;;;7.50;4.40;;;14.30;89.80;;;14.74;62.36;100786.47;5011907;28;20607;-71
2022/05/25 04:53:19;;;;;;;6.80;4.90;;;14.30;90.00;;;14.97;62.25;100780.25;5009983;28;20449;-72
2022/05/25 04:58:38;;;;;;;4.60;4.20;;;14.60;88.20;;;15.67;59.36;100780.34;5021345;28;20471;-71
2022/05/25 05:01:11;;;;;;;7.33;5.43;;;14.90;74.30;;;15.75;59.63;100774.53;5020109;28;20497;-73
2022/05/25 05:03:41;;;;;;;5.27;4.43;;;15.00;73.60;;;15.96;59.00;100775.81;5017608;28;20530;-72
2022/05/25 05:06:11;;;;;;;5.97;4.30;;;15.20;71.40;;;16.06;58.19;100774.13;5009609;28;20482;-72
2022/05/25 05:08:41;;;;;;;5.40;5.00;;;15.30;58.70;;;16.19;57.74;100777.63;5022293;28;20453;-73
2022/05/25 05:11:14;;;;;;;4.17;3.73;;;15.30;56.30;;;16.60;57.34;100780.16;5014284;28;20461;-70
2022/05/25 05:13:44;;;;;;;4.50;4.10;;;15.60;54.20;;;17.37;54.74;100785.88;5023114;28;20943;-71
2022/05/25 05:16:15;;;;;;;5.17;4.43;;;16.00;47.20;;;18.12;52.77;100793.53;5020542;28;20791;-72
2022/05/25 05:18:47;;;;;;;4.93;4.40;;;16.50;36.70;;;18.96;51.06;100793.97;5013945;28;20472;-71
2022/05/25 05:21:28;;;;;;;4.63;4.23;;;16.90;33.90;;;18.65;51.09;100788.16;5029891;28;20474;-71
2022/05/25 05:23:57;;;;;;;4.03;3.60;;;17.30;27.70;;;18.41;50.85;100786.78;5014498;28;20447;-71
2022/05/25 05:26:27;;;;;;;5.03;4.53;;;17.50;23.80;;;18.03;51.51;100789.56;5012559;28;20432;-70
2022/05/25 05:28:56;;;;;;;5.37;4.70;;;17.30;21.80;;;17.90;52.28;100792.69;5007887;28;20551;-69
2022/05/25 05:31:24;;;;;;;7.03;4.13;;;17.30;22.40;;;17.65;51.82;100799.47;5020228;28;20972;-70
2022/05/25 05:33:54;;;;;;;5.57;4.37;;;17.10;21.60;;;17.50;52.78;100804.66;5012502;28;20526;-70
2022/05/25 05:36:29;;;;;;;5.27;4.77;;;17.00;22.60;;;17.58;52.79;100804.22;5007170;28;20433;-71
2022/05/25 05:39:03;;;;;;;4.50;4.10;;;17.00;22.60;;;17.77;52.21;100816.59;5008285;28;20474;-71
2022/05/25 05:41:46;;;;;;;5.70;3.90;;;17.10;21.70;;;17.32;52.83;100815.88;5001507;28;20936;-72
2022/05/25 05:44:21;;;;;;;6.60;4.40;;;17.00;20.90;;;17.44;52.38;100805.66;5026383;23;21713;-71
2022/05/25 05:46:54;;;;;;;4.53;4.07;;;17.00;20.60;;;17.51;52.11;100820.00;5003043;28;20974;-73
2022/05/25 05:49:23;;;;;;;3.87;3.40;;;17.10;19.70;;;17.79;52.25;100825.41;4988914;28;20533;-72
2022/05/25 05:51:52;;;;;;;6.53;3.70;;;17.30;21.40;;;17.56;51.78;100827.47;4992758;28;20967;-72
2022/05/25 05:54:22;;;;;;;3.20;2.90;;;17.20;18.50;;;17.59;51.66;100827.81;5007268;28;20932;-73
2022/05/25 05:56:52;;;;;;;5.40;4.47;;;17.20;19.00;;;17.20;51.90;100828.78;4988936;28;20442;-73
2022/05/25 05:59:20;;;;;;;4.57;3.57;;;17.00;17.60;;;17.52;52.15;100820.84;4990078;28;20924;-72
2022/05/25 06:01:49;;;;;;;4.50;3.60;;;17.00;18.90;;;17.44;51.29;100813.88;5000435;28;20475;-72
2022/05/25 06:04:18;;;;;;;6.53;4.10;;;17.10;16.90;;;17.07;52.25;100815.44;4989092;28;20446;-71
2022/05/25 06:06:47;;;;;;;4.10;3.33;;;17.00;16.80;;;16.81;52.48;100814.13;4990155;28;20442;-72
2022/05/25 06:09:16;;;;;;;5.67;4.30;;;16.70;16.70;;;17.17;52.26;100818.34;4983232;28;20466;-72
2022/05/25 06:11:45;;;;;;;5.00;4.40;;;16.80;17.90;;;17.44;51.20;100824.81;4983744;28;20436;-72
2022/05/25 06:14:15;;;;;;;4.93;4.33;;;17.00;16.80;;;17.48;50.88;100815.00;4987481;28;20434;-71
2022/05/25 06:19:33;;;;;;;4.30;3.83;;;17.30;16.70;;;17.50;51.47;100823.81;4987042;28;20840;-72
2022/05/25 06:22:07;;;;;;;5.47;3.97;;;17.30;15.40;;;17.79;50.76;100833.59;4988566;28;20437;-72
2022/05/25 06:24:40;;;;;;;4.30;3.87;;;17.50;15.60;;;17.75;51.14;100831.63;4990936;28;20528;-71
2022/05/25 06:27:11;;;;;;;7.70;4.17;;;17.30;15.90;;;18.00;51.08;100836.66;4989612;28;20449;-72
2022/05/25 06:29:44;;;;;;;5.03;4.30;;;17.50;16.10;;;18.21;49.79;100827.59;4989358;28;20444;-71
2022/05/25 06:32:16;;;;;;;5.37;4.23;;;17.70;14.60;;;18.02;50.83;100831.72;4985351;28;20469;-72
2022/05/25 06:34:48;;;;;;;4.17;3.80;;;17.70;14.80;;;18.05;50.40;100837.56;4992994;28;20521;-72
2022/05/25 06:37:19;;;;;;;6.17;4.83;;;17.70;14.50;;;18.10;50.12;100839.53;4991394;28;20440;-72
2022/05/25 06:39:49;;;;;;;4.57;3.93;;;17.90;13.50;;;17.91;50.59;100836.22;4985464;28;20894;-72
2022/05/25 06:42:19;;;;;;;4.97;4.20;;;17.70;13.60;;;18.07;51.06;100834.53;4986934;28;20512;-71
2022/05/25 06:44:59;;;;;;;4.67;4.23;;;17.70;14.80;;;18.23;49.91;100839.16;4991848;28;20489;-72
2022/05/25 06:47:30;;;;;;;4.93;4.40;;;17.90;13.40;;;18.57;50.30;100846.19;4991820;28;20475;-72
2022/05/25 06:49:59;;;;;;;4.00;3.67;;;18.00;14.70;;;19.04;49.81;100853.81;4987463;28;20557;-73
2022/05/25 06:52:28;;;;;;;4.60;3.77;;;18.20;15.20;;;19.06;48.67;100866.19;4987628;28;20457;-71
2022/05/25 06:54:58;;;;;;;4.70;4.17;;;18.50;12.90;;;18.68;48.91;100863.59;4989957;28;20545;-72
2022/05/25 06:57:27;;;;;;;5.23;4.30;;;18.30;11.40;;;18.97;49.86;100861.44;4991005;28;20537;-72
2022/05/25 06:59:56;;;;;;;6.03;4.13;;;18.50;12.90;;;19.10;49.48;100856.38;4988576;28;21306;-72
2022/05/25 07:02:28;;;;;;;7.10;4.23;;;18.50;13.20;;;19.04;49.52;100856.56;4988406;28;20462;-72
2022/05/25 07:04:56;;;;;;;6.70;4.57;;;18.40;13.00;;;18.89;48.52;100864.63;4986719;28;20499;-72
2022/05/25 07:07:25;;;;;;;4.03;3.63;;;18.50;11.10;;;18.76;49.26;100859.56;4991199;28;20879;-72
2022/05/25 07:09:54;;;;;;;4.10;3.60;;;18.20;11.50;;;18.87;48.76;100864.06;4991009;28;20854;-71
2022/05/25 07:12:23;;;;;;;3.70;3.40;;;18.30;11.40;;;18.60;49.87;100864.84;4990743;28;20472;-72
2022/05/25 07:14:51;;;;;;;5.10;3.90;;;18.10;11.90;;;18.78;49.28;100868.34;4988323;28;20448;-72
2022/05/25 07:17:20;;;;;;;3.93;3.53;;;18.10;11.80;;;18.90;49.39;100872.59;4991011;28;20408;-72
2022/05/25 07:19:50;;;;;;;4.87;3.40;;;18.20;12.70;;;18.93;49.05;100879.47;4990417;28;21001;-72
2022/05/25 07:22:20;;;;;;;7.00;3.50;;;18.30;12.10;;;18.86;50.12;100884.34;4991159;28;20464;-73
2022/05/25 07:24:49;;;;;;;4.97;4.03;;;18.30;12.90;;;18.90;49.51;100891.81;4990207;28;20911;-72
2022/05/25 07:27:18;;;;;;;9.10;3.87;;;18.30;12.20;;;18.79;49.46;100878.22;4979654;28;21171;-72
2022/05/25 07:29:46;;;;;;;4.83;3.43;;;18.30;11.50;;;18.89;49.55;100889.31;4989270;28;20442;-72
2022/05/25 07:32:16;;;;;;;3.90;3.50;;;18.20;12.50;;;18.90;48.84;100888.22;4985024;28;20524;-72
2022/05/25 07:34:54;;;;;;;4.60;3.97;;;18.40;11.60;;;18.87;49.28;100888.75;4991593;28;20846;-72
2022/05/25 07:37:33;;;;;;;4.20;3.80;;;18.30;11.70;;;18.76;49.35;100881.47;4987880;28;20530;-72
2022/05/25 07:40:09;;;;;;;5.40;3.90;;;18.30;11.40;;;18.99;49.05;100889.41;4990867;28;20473;-72
2022/05/25 07:42:42;;;;;;;7.43;5.00;;;18.50;11.30;;;18.58;49.45;100891.69;4988798;28;20851;-72
2022/05/25 07:45:12;;;;;;;5.20;4.10;;;18.30;10.70;;;19.00;49.53;100896.56;4991515;28;20436;-72
2022/05/25 07:47:40;;;;;;;4.57;4.00;;;18.50;11.50;;;19.15;49.67;100901.38;4989625;28;20538;-73
2022/05/25 07:50:11;;;;;;;4.23;3.40;;;18.40;12.20;;;19.57;48.85;100901.53;4990203;28;21030;-72
2022/05/25 07:52:42;;;;;;;4.10;3.23;;;18.70;11.70;;;19.93;47.74;100901.56;4990759;28;20423;-72
2022/05/25 07:55:12;;;;;;;4.63;3.53;;;19.00;11.00;;;20.03;46.94;100905.47;5002549;28;20424;-72
2022/05/25 07:57:41;;;;;;;4.53;3.63;;;19.10;9.20;;;20.02;47.03;100910.16;4990280;28;20439;-72
2022/05/25 08:00:13;;;;;;;3.10;2.80;;;19.20;9.20;;;20.10;46.99;100909.63;4990156;28;20508;-73
2022/05/25 08:05:47;;;;;;;5.53;3.87;;;19.30;7.40;;;20.18;46.68;100909.16;4988278;28;20935;-74
2022/05/25 08:08:22;;;;;;;4.07;3.67;;;19.40;8.00;;;20.29;46.95;100919.09;4990382;28;20528;-71
2022/05/25 08:11:03;;;;;;;4.27;3.33;;;19.60;8.50;;;20.23;46.46;100917.44;4989839;28;20861;-72
2022/05/25 08:13:35;;;;;;;5.00;3.80;;;19.50;7.30;;;20.13;46.37;100920.13;4989926;28;20426;-72
2022/05/25 08:16:10;;;;;;;7.00;3.50;;;19.50;7.10;;;20.02;47.18;100923.88;4985164;28;20894;-72
2022/05/25 08:18:40;;;;;;;4.33;3.33;;;19.60;7.40;;;19.92;46.83;100916.38;4980745;28;20979;-72
2022/05/25 08:21:11;;;;;;;4.10;3.30;;;19.40;6.90;;;19.90;47.24;100910.31;4990179;28;21005;-73
2022/05/25 08:23:40;;;;;;;4.67;3.80;;;19.20;7.50;;;20.08;47.03;100916.50;5008796;28;20934;-72
2022/05/25 08:26:10;;;;;;;4.53;3.00;;;19.30;7.70;;;20.24;46.96;100908.06;4989437;28;20449;-72
2022/05/25 08:28:39;;;;;;;4.67;4.00;;;19.60;7.90;;;20.64;45.62;100912.16;5003776;28;20497;-72
2022/05/25 08:31:08;;;;;;;4.00;3.53;;;20.00;6.40;;;20.77;45.50;100920.75;5002208;28;20444;-72
2022/05/25 08:33:37;;;;;;;3.67;3.23;;;20.10;5.90;;;20.57;46.04;100914.34;4985381;28;20438;-72
2022/05/25 08:36:06;;;;;;;3.50;3.17;;;20.00;5.70;;;21.05;45.72;100904.91;4990466;28;20532;-72
2022/05/25 08:38:36;;;;;;;3.37;3.07;;;20.30;6.10;;;20.92;45.39;100906.22;4990510;28;20412;-71
2022/05/25 08:41:05;;;;;;;4.57;4.17;;;20.50;5.10;;;20.75;45.16;100911.13;5007997;28;21022;-71
2022/05/25 08:43:43;;;;;;;3.37;3.07;;;20.50;3.80;;;20.33;45.67;100909.25;4996356;28;20904;-72
2022/05/25 08:46:17;;;;;;;5.03;3.13;;;20.10;3.70;;;20.34;46.14;100910.91;4985871;28;20533;-72
2022/05/25 08:48:46;;;;;;;3.30;2.97;;;20.10;4.70;;;20.27;45.60;100915.81;4989371;28;20438;-72
2022/05/25 08:51:43;;;;;;;5.13;2.70;;;20.00;3.60;;;20.45;45.83;100911.81;4995007;28;20529;-72
2022/05/25 08:54:14;;;;;;;3.23;2.93;;;19.90;4.10;;;20.10;46.19;100917.88;4993261;28;20877;-72
2022/05/25 08:56:49;;;;;;;3.50;2.93;;;19.80;4.00;;;20.18;46.05;100920.16;4981371;28;20446;-72
2022/05/25 08:59:24;;;;;;;3.03;2.83;;;19.80;4.20;;;20.34;46.07;100915.59;4991902;28;20494;-71
2022/05/25 09:01:58;;;;;;;4.60;2.17;;;19.90;4.40;;;20.66;45.08;100912.75;4992067;28;20476;-71
2022/05/25 09:04:39;;;;;;;8.50;2.43;;;20.10;3.60;;;20.62;44.61;100917.13;4994955;28;20782;-72
2022/05/25 09:07:22;;;;;;;4.00;2.70;;;20.30;2.60;;;21.13;44.46;100912.63;4995491;28;20437;-71
2022/05/25 09:09:54;;;;;;;3.80;2.70;;;20.60;2.80;;;21.24;44.03;100909.66;4994091;28;20449;-72
2022/05/25 09:12:40;;;;;;;4.00;2.60;;;20.70;1.90;;;21.64;43.38;100916.28;4992915;28;20446;-72
2022/05/25 09:15:17;;;;;;;3.67;2.30;;;21.10;2.00;;;20.81;44.41;100910.06;4986164;28;20439;-72
2022/05/25 09:17:49;;;;;;;3.97;2.20;;;20.80;1.00;;;20.08;45.02;100908.25;4993553;28;20507;-72
2022/05/25 09:20:26;;;;;;;3.77;2.83;;;20.20;1.00;;;20.21;45.55;100907.78;4993124;28;20543;-72
2022/05/25 09:22:58;;;;;;;3.57;2.97;;;20.00;1.80;;;20.21;46.14;100908.63;4986891;28;20437;-72
2022/05/25 09:25:30;;;;;;;3.00;1.93;;;20.10;2.50;;;20.03;45.15;100909.06;4988695;28;20439;-72
2022/05/25 09:28:03;;;;;;;4.60;1.83;;;19.90;1.20;;;20.06;44.94;100914.00;4989302;28;20448;-72
2022/05/25 09:30:38;;;;;;;2.77;1.80;;;19.90;1.00;;;20.51;44.06;100915.41;4993024;28;20527;-70
2022/05/25 09:33:15;;;;;;;2.50;2.17;;;20.10;1.00;;;20.46;44.16;100918.13;4986295;28;20491;-72
2022/05/25 09:35:50;;;;;;;4.17;1.97;;;20.00;1.00;;;20.64;44.09;100925.91;4989605;28;20445;-72
2022/05/25 09:38:43;;;;;;;3.17;2.67;;;20.20;1.00;;;20.38;43.96;100917.53;4992950;28;20439;-73
2022/05/25 09:41:19;;;;;;;3.33;2.03;;;20.00;1.00;;;20.17;44.84;100909.41;4988573;28;20486;-72
2022/05/25 09:43:54;;;;;;;4.70;2.43;;;19.70;1.00;;;20.02;44.88;100912.88;4988387;28;20495;-72
2022/05/25 09:46:28;;;;;;;4.13;2.50;;;19.60;1.00;;;19.83;45.73;100919.88;4990884;28;20448;-72
2022/05/25 09:49:02;;;;;;;4.13;2.30;;;19.60;1.30;;;20.06;45.17;100913.19;4992141;28;20433;-72
2022/05/25 09:51:36;;;;;;;4.17;1.70;;;19.70;1.00;;;20.49;43.81;100918.41;4982795;28;21022;-72
2022/05/25 09:54:20;;;;;;;2.43;1.63;;;20.00;1.00;;;21.27;41.56;100918.47;4988126;28;20417;-71
2022/05/25 09:56:56;;;;;;;2.80;1.57;;;20.60;1.00;;;21.73;40.56;100914.66;4991230;28;20437;-72
2022/05/25 09:59:31;;;;;;;3.00;1.90;;;21.00;1.00;;;22.22;39.75;100908.59;4985799;28;21068;-73
2022/05/25 10:02:00;;;;;;;1.83;1.30;;;21.40;1.00;;;22.46;38.83;100904.09;4986618;28;20456;-72
2022/05/25 10:04:51;;;;;;;1.30;1.07;;;21.70;1.00;;;22.48;38.41;100915.66;4990275;28;20447;-73
2022/05/25 10:07:29;;;;;;;2.30;1.97;;;21.80;1.00;;;21.99;39.58;100919.06;4985312;28;20914;-73
2022/05/25 10:10:02;;;;;;;2.57;2.23;;;21.70;1.00;;;20.92;41.76;100910.91;4992008;28;20527;-72
2022/05/25 10:12:41;;;;;;;2.93;2.47;;;21.10;1.00;;;20.70;42.72;100919.34;4992392;28;20457;-72
2022/05/25 10:15:13;;;;;;;4.27;2.50;;;20.60;1.00;;;20.65;42.12;100914.66;4991258;28;20448;-72
2022/05/25 10:17:46;;;;;;;2.40;1.60;;;20.40;1.00;;;20.95;41.85;100910.38;4991585;28;20438;-72
2022/05/25 10:20:26;;;;;;;4.63;4.10;;;20.60;1.00;;;20.75;41.64;100905.63;4992296;28;20472;-72
2022/05/25 10:23:07;;;;;;;2.37;1.77;;;20.50;1.00;;;20.85;42.50;100904.84;4993394;28;20795;-72
2022/05/25 10:25:43;;;;;;;1.93;1.70;;;20.30;1.00;;;20.30;42.69;100909.81;4992366;28;20466;-71
2022/05/25 10:28:25;;;;;;;2.37;1.70;;;20.20;1.00;;;20.67;42.61;100903.41;4986761;28;20499;-72
2022/05/25 10:36:56;;;;;;;2.40;1.73;;;21.30;1.00;;;22.37;40.19;100883.69;4991296;28;20882;-72
2022/05/25 10:39:35;;;;;;;1.60;1.47;;;21.70;1.00;;;22.53;39.77;100877.03;4992163;28;20471;-73
2022/05/25 10:42:14;;;;;;;2.23;1.53;;;21.80;1.00;;;22.96;37.91;100873.53;4987249;28;20445;-73
2022/05/25 10:45:02;;;;;;;2.20;1.90;;;22.10;1.00;;;22.57;38.79;100875.38;4997203;28;20468;-73
2022/05/25 10:47:57;;;;;;;1.37;0.93;;;22.10;1.00;;;22.89;38.20;100874.97;4985752;28;20446;-72
2022/05/25 10:50:32;;;;;;;1.30;1.03;;;22.30;1.00;;;23.61;37.70;100871.47;4991428;28;20416;-73
2022/05/25 10:53:35;;;;;;;5.90;1.77;;;22.70;1.00;;;23.68;36.13;100871.94;4991749;28;20412;-72
2022/05/25 10:56:25;;;;;;;2.73;1.50;;;23.10;1.00;;;23.75;35.86;100877.16;4981688;28;20435;-72
2022/05/25 10:59:12;;;;;;;2.40;1.30;;;23.10;1.00;;;23.75;35.75;100875.22;4987639;28;20439;-72
2022/05/25 11:02:03;;;;;;;2.20;1.40;;;23.20;1.00;;;24.05;35.16;100867.75;5006275;28;20540;-73